createdAt,value
2019-02-07T00:00:28.045Z,100327.33
2019-02-07T00:01:29.353Z,100329.17
2019-02-07T00:02:30.460Z,100324.83
2019-02-07T00:03:31.672Z,100329.81
2019-02-07T00:04:33.188Z,100334.17
2019-02-07T00:05:34.340Z,100323.62
2019-02-07T00:06:35.458Z,100318.80
2019-02-07T00:07:36.568Z,100315.27
2019-02-07T00:08:37.680Z,100313.45
2019-02-07T00:09:38.793Z,100315.27
2019-02-07T00:10:39.917Z,100307.77
2019-02-07T00:11:41.030Z,100305.92
2019-02-07T00:12:42.137Z,100304.94
2019-02-07T00:13:43.461Z,100301.09
2019-02-07T00:14:44.597Z,100296.23
2019-02-07T00:15:45.755Z,100291.41
2019-02-07T00:16:46.965Z,100289.22
2019-02-07T00:17:48.081Z,100288.74
2019-02-07T00:18:49.196Z,100285.56
2019-02-07T00:19:50.414Z,100277.20
2019-02-07T00:20:51.700Z,100278.06
2019-02-07T00:21:52.913Z,100270.53
2019-02-07T00:22:54.129Z,100270.53
2019-02-07T00:23:55.248Z,100271.88
2019-02-07T00:24:56.361Z,100271.39
2019-02-07T00:25:57.509Z,100269.72
2019-02-07T00:26:58.628Z,100267.69
2019-02-07T00:27:59.738Z,100272.17
2019-02-07T00:29:01.271Z,100278.71
2019-02-07T00:30:05.988Z,100274.36
2019-02-07T00:31:07.215Z,100277.03
2019-02-07T00:32:08.829Z,100279.36
2019-02-07T00:33:09.939Z,100271.35
2019-02-07T00:34:11.224Z,100275.83
2019-02-07T00:35:12.545Z,100274.84
2019-02-07T00:36:13.693Z,100283.02
2019-02-07T00:37:14.816Z,100284.19
2019-02-07T00:38:15.930Z,100278.84
2019-02-07T00:39:17.047Z,100284.19
2019-02-07T00:40:19.361Z,100277.17
2019-02-07T00:41:20.816Z,100272.69
2019-02-07T00:42:21.930Z,100275.02
2019-02-07T00:43:23.040Z,100267.83
2019-02-07T00:44:24.160Z,100280.18
2019-02-07T00:45:25.273Z,100268.68
2019-02-07T00:46:26.906Z,100266.84
2019-02-07T00:47:28.112Z,100259.34
2019-02-07T00:48:29.326Z,100262.01
2019-02-07T00:49:30.440Z,100263.34
2019-02-07T00:50:31.850Z,100258.48
2019-02-07T00:51:33.002Z,100253.48
2019-02-07T00:52:34.110Z,100247.67
2019-02-07T00:53:35.332Z,100247.67
2019-02-07T00:54:36.441Z,100249.01
2019-02-07T00:55:37.555Z,100251.16
2019-02-07T00:56:39.833Z,100248.50
2019-02-07T00:57:41.481Z,100244.14
2019-02-07T00:58:42.592Z,100247.16
2019-02-07T00:59:43.701Z,100241.82
2019-02-07T01:00:45.207Z,100246.34
2019-02-07T01:01:46.356Z,100242.33
2019-02-07T01:02:47.464Z,100241.00
2019-02-07T01:03:48.576Z,100245.00
2019-02-07T01:04:49.683Z,100246.34
2019-02-07T01:05:50.793Z,100238.81
2019-02-07T01:06:51.944Z,100233.13
2019-02-07T01:07:53.052Z,100235.31
2019-02-07T01:08:54.270Z,100234.46
2019-02-07T01:09:55.484Z,100232.78
2019-02-07T01:10:56.597Z,100231.45
2019-02-07T01:11:57.840Z,100225.62
2019-02-07T01:12:58.947Z,100219.44
2019-02-07T01:14:00.093Z,100221.28
2019-02-07T01:15:02.352Z,100222.62
2019-02-07T01:16:04.018Z,100220.43
2019-02-07T01:17:05.805Z,100223.95
2019-02-07T01:18:07.415Z,100219.44
2019-02-07T01:19:09.124Z,100213.28
2019-02-07T01:20:12.736Z,100202.56
2019-02-07T01:21:13.841Z,100211.43
2019-02-07T01:22:14.964Z,100215.95
2019-02-07T01:23:16.078Z,100211.09
2019-02-07T01:24:17.188Z,100212.28
2019-02-07T01:25:22.848Z,100213.63
2019-02-07T01:26:23.965Z,100206.95
2019-02-07T01:27:25.251Z,100200.28
2019-02-07T01:28:26.773Z,100208.77
2019-02-07T01:29:27.897Z,100199.94
2019-02-07T01:30:29.212Z,100201.27
2019-02-07T01:31:30.323Z,100206.61
2019-02-07T01:32:31.480Z,100208.42
2019-02-07T01:33:32.691Z,100208.93
2019-02-07T01:34:33.798Z,100210.61
2019-02-07T01:35:35.014Z,100219.61
2019-02-07T01:36:36.120Z,100214.27
2019-02-07T01:37:37.544Z,100211.73
2019-02-07T01:38:38.659Z,100211.60
2019-02-07T01:39:39.773Z,100204.08
2019-02-07T01:40:40.988Z,100204.93
2019-02-07T01:41:42.101Z,100206.74
2019-02-07T01:42:43.380Z,100208.93
2019-02-07T01:43:44.591Z,100204.93
2019-02-07T01:44:45.700Z,100200.92
2019-02-07T01:45:46.911Z,100199.59
2019-02-07T01:46:48.328Z,100197.41
2019-02-07T01:47:50.254Z,100192.06
2019-02-07T01:48:51.766Z,100198.73
2019-02-07T01:49:52.870Z,100206.27
2019-02-07T01:50:53.983Z,100206.27
2019-02-07T01:51:55.094Z,100205.92
2019-02-07T01:52:56.250Z,100212.08
2019-02-07T01:53:57.365Z,100210.41
2019-02-07T01:54:58.478Z,100209.41
2019-02-07T01:56:00.092Z,100207.25
2019-02-07T01:57:01.209Z,100209.41
2019-02-07T01:58:02.460Z,100202.73
2019-02-07T01:59:03.568Z,100198.39
2019-02-07T02:00:09.591Z,100198.73
2019-02-07T02:01:10.752Z,100196.58
2019-02-07T02:02:11.959Z,100192.58
2019-02-07T02:03:13.117Z,100192.58
2019-02-07T02:04:14.238Z,100192.58
2019-02-07T02:05:17.149Z,100189.56
2019-02-07T02:06:18.764Z,100187.88
2019-02-07T02:07:19.975Z,100184.22
2019-02-07T02:08:21.200Z,100178.03
2019-02-07T02:09:22.308Z,100185.56
2019-02-07T02:10:27.699Z,100188.23
2019-02-07T02:11:28.908Z,100182.03
2019-02-07T02:12:30.224Z,100180.22
2019-02-07T02:13:31.353Z,100186.55
2019-02-07T02:14:32.472Z,100179.02
2019-02-07T02:15:33.605Z,100186.17
2019-02-07T02:16:34.822Z,100172.35
2019-02-07T02:17:36.034Z,100177.20
2019-02-07T02:18:37.192Z,100178.17
2019-02-07T02:19:38.314Z,100180.36
2019-02-07T02:20:39.432Z,100174.16
2019-02-07T02:21:40.536Z,100170.16
2019-02-07T02:22:41.752Z,100175.50
2019-02-07T02:23:42.910Z,100179.87
2019-02-07T02:24:45.283Z,100179.02
2019-02-07T02:25:46.740Z,100186.03
2019-02-07T02:26:47.900Z,100185.22
2019-02-07T02:27:49.012Z,100190.55
2019-02-07T02:28:50.160Z,100189.70
2019-02-07T02:29:51.297Z,100189.70
2019-02-07T02:30:52.379Z,100178.55
2019-02-07T02:31:53.592Z,100181.21
2019-02-07T02:32:54.811Z,100178.55
2019-02-07T02:33:56.448Z,100178.17
2019-02-07T02:34:57.565Z,100181.69
2019-02-07T02:35:58.679Z,100176.35
2019-02-07T02:36:59.802Z,100175.02
2019-02-07T02:38:00.905Z,100171.02
2019-02-07T02:39:04.064Z,100177.34
2019-02-07T02:40:07.184Z,100168.83
2019-02-07T02:41:08.294Z,100159.48
2019-02-07T02:42:09.415Z,100164.83
2019-02-07T02:43:10.524Z,100165.34
2019-02-07T02:44:12.185Z,100158.66
2019-02-07T02:45:16.401Z,100156.47
2019-02-07T02:46:17.512Z,100158.32
2019-02-07T02:47:18.624Z,100152.98
2019-02-07T02:48:19.737Z,100152.98
2019-02-07T02:49:20.857Z,100149.80
2019-02-07T02:50:22.168Z,100148.47
2019-02-07T02:51:23.280Z,100148.47
2019-02-07T02:52:24.390Z,100153.80
2019-02-07T02:53:25.906Z,100145.12
2019-02-07T02:54:31.921Z,100146.79
2019-02-07T02:55:35.144Z,100152.13
2019-02-07T02:56:36.248Z,100152.13
2019-02-07T02:57:37.461Z,100147.30
2019-02-07T02:58:38.576Z,100142.45
2019-02-07T02:59:39.810Z,100144.64
2019-02-07T03:00:58.341Z,100141.11
2019-02-07T03:02:01.357Z,100144.12
2019-02-07T03:03:16.505Z,100137.11
2019-02-07T03:04:19.524Z,100146.45
2019-02-07T03:05:34.618Z,100142.27
2019-02-07T03:06:46.471Z,100141.94
2019-02-07T03:07:55.257Z,100137.93
2019-02-07T03:09:00.835Z,100132.73
2019-02-07T03:10:04.059Z,100134.58
2019-02-07T03:11:21.900Z,100135.05
2019-02-07T03:12:31.127Z,100136.56
2019-02-07T03:13:36.749Z,100136.56
2019-02-07T03:14:52.061Z,100141.05
2019-02-07T03:15:57.673Z,100141.05
2019-02-07T03:17:06.626Z,100140.70
2019-02-07T03:18:18.548Z,100137.69
2019-02-07T03:19:21.562Z,100133.69
2019-02-07T03:20:30.459Z,100130.20
2019-02-07T03:21:36.317Z,100128.01
2019-02-07T03:22:39.327Z,100123.19
2019-02-07T03:23:57.433Z,100117.33
2019-02-07T03:25:12.473Z,100115.18
2019-02-07T03:26:18.289Z,100115.66
2019-02-07T03:27:37.983Z,100115.66
2019-02-07T03:28:43.512Z,100113.64
2019-02-07T03:29:46.528Z,100114.97
2019-02-07T03:30:52.330Z,100112.81
2019-02-07T03:32:12.016Z,100121.30
2019-02-07T03:33:17.645Z,100124.48
2019-02-07T03:34:29.553Z,100125.30
2019-02-07T03:35:35.409Z,100130.16
2019-02-07T03:36:55.268Z,100128.48
2019-02-07T03:37:58.289Z,100121.64
2019-02-07T03:39:10.196Z,100123.97
2019-02-07T03:40:26.367Z,100124.96
2019-02-07T03:41:32.439Z,100121.81
2019-02-07T03:42:38.169Z,100119.28
2019-02-07T03:43:49.832Z,100123.28
2019-02-07T03:44:52.845Z,100120.27
2019-02-07T03:46:03.080Z,100117.61
2019-02-07T03:47:18.056Z,100116.61
2019-02-07T03:48:21.078Z,100116.75
2019-02-07T03:49:32.957Z,100110.94
2019-02-07T03:50:38.728Z,100111.07
2019-02-07T03:51:50.552Z,100118.09
2019-02-07T03:52:56.199Z,100116.75
2019-02-07T03:54:13.044Z,100120.27
2019-02-07T03:55:21.588Z,100121.61
2019-02-07T03:56:30.339Z,100124.75
2019-02-07T03:57:35.876Z,100115.42
2019-02-07T03:58:38.934Z,100114.08
2019-02-07T03:59:50.745Z,100119.94
2019-02-07T04:01:02.867Z,100126.95
2019-02-07T04:02:11.908Z,100123.42
2019-02-07T04:03:15.028Z,100126.60
2019-02-07T04:04:20.600Z,100119.59
2019-02-07T04:05:29.150Z,100122.73
2019-02-07T04:06:34.824Z,100125.41
2019-02-07T04:07:37.841Z,100122.02
2019-02-07T04:08:43.710Z,100132.20
2019-02-07T04:09:49.284Z,100129.20
2019-02-07T04:11:07.354Z,100131.25
2019-02-07T04:12:10.371Z,100121.54
2019-02-07T04:13:15.944Z,100121.54
2019-02-07T04:14:35.312Z,100138.87
2019-02-07T04:15:47.728Z,100135.25
2019-02-07T04:16:50.753Z,100125.54
2019-02-07T04:18:08.806Z,100133.20
2019-02-07T04:19:20.597Z,100122.19
2019-02-07T04:20:40.249Z,100126.53
2019-02-07T04:21:45.832Z,100118.19
2019-02-07T04:22:48.848Z,100128.52
2019-02-07T04:23:51.890Z,100123.18
2019-02-07T04:25:03.925Z,100132.00
2019-02-07T04:26:25.165Z,100131.18
2019-02-07T04:27:28.184Z,100140.52
2019-02-07T04:28:40.038Z,100133.16
2019-02-07T04:29:48.835Z,100133.98
2019-02-07T04:30:57.406Z,100120.17
2019-02-07T04:32:00.442Z,100122.49
2019-02-07T04:33:09.477Z,100127.48
2019-02-07T04:34:24.293Z,100130.16
2019-02-07T04:35:27.313Z,100135.83
2019-02-07T04:36:30.328Z,100132.81
2019-02-07T04:37:39.322Z,100129.16
2019-02-07T04:38:58.952Z,100119.83
2019-02-07T04:40:01.974Z,100121.98
2019-02-07T04:41:21.890Z,100125.98
2019-02-07T04:42:41.975Z,100122.49
2019-02-07T04:43:47.511Z,100131.83
2019-02-07T04:45:02.609Z,100129.16
2019-02-07T04:46:26.370Z,100132.30
2019-02-07T04:47:34.447Z,100131.83
2019-02-07T04:48:43.054Z,100128.81
2019-02-07T04:50:00.962Z,100128.81
2019-02-07T04:51:04.048Z,100130.62
2019-02-07T04:52:13.125Z,100130.80
2019-02-07T04:53:16.154Z,100130.80
2019-02-07T04:54:31.269Z,100135.45
2019-02-07T04:55:50.988Z,100131.45
2019-02-07T04:56:56.556Z,100129.60
2019-02-07T04:58:14.458Z,100134.11
2019-02-07T04:59:17.475Z,100135.45
2019-02-07T05:00:20.602Z,100129.77
2019-02-07T05:01:26.303Z,100132.44
2019-02-07T05:02:38.412Z,100132.91
2019-02-07T05:03:43.932Z,100126.76
2019-02-07T05:04:46.954Z,100122.25
2019-02-07T05:06:05.138Z,100124.44
2019-02-07T05:07:08.157Z,100120.44
2019-02-07T05:08:11.224Z,100121.59
2019-02-07T05:09:17.037Z,100121.25
2019-02-07T05:10:31.832Z,100107.44
2019-02-07T05:11:34.960Z,100110.11
2019-02-07T05:12:37.980Z,100125.59
2019-02-07T05:13:50.121Z,100117.12
2019-02-07T05:14:55.646Z,100111.78
2019-02-07T05:15:58.677Z,100108.61
2019-02-07T05:17:13.545Z,100112.47
2019-02-07T05:18:19.108Z,100104.47
2019-02-07T05:19:38.772Z,100105.80
2019-02-07T05:20:47.424Z,100105.80
2019-02-07T05:21:50.448Z,100105.80
2019-02-07T05:22:53.502Z,100109.80
2019-02-07T05:23:56.656Z,100096.12
2019-02-07T05:25:14.958Z,100097.94
2019-02-07T05:26:23.648Z,100098.28
2019-02-07T05:27:35.521Z,100104.13
2019-02-07T05:28:38.582Z,100104.47
2019-02-07T05:29:41.604Z,100102.28
2019-02-07T05:30:45.133Z,100100.95
2019-02-07T05:31:50.705Z,100101.80
2019-02-07T05:33:10.049Z,100106.79
2019-02-07T05:34:31.555Z,100102.63
2019-02-07T05:35:50.946Z,100111.48
2019-02-07T05:36:59.667Z,100109.29
2019-02-07T05:38:05.235Z,100106.79
2019-02-07T05:39:18.031Z,100111.78
2019-02-07T05:40:21.051Z,100105.12
2019-02-07T05:41:26.869Z,100099.78
2019-02-07T05:42:46.464Z,100106.45
2019-02-07T05:43:51.987Z,100098.80
2019-02-07T05:45:11.358Z,100101.11
2019-02-07T05:46:20.089Z,100104.13
2019-02-07T05:47:31.748Z,100108.13
2019-02-07T05:48:34.766Z,100106.79
2019-02-07T05:49:46.588Z,100106.45
2019-02-07T05:51:07.837Z,100116.61
2019-02-07T05:52:22.773Z,100103.27
2019-02-07T05:53:42.125Z,100105.12
2019-02-07T05:54:47.665Z,100100.26
2019-02-07T05:55:59.391Z,100098.92
2019-02-07T05:57:04.911Z,100097.25
2019-02-07T05:58:08.020Z,100094.75
2019-02-07T05:59:27.425Z,100101.42
2019-02-07T06:00:39.197Z,100094.24
2019-02-07T06:01:59.294Z,100097.42
2019-02-07T06:03:14.079Z,100099.09
2019-02-07T06:04:28.856Z,100095.09
2019-02-07T06:05:31.873Z,100096.22
2019-02-07T06:06:50.149Z,100094.41
2019-02-07T06:07:58.921Z,100093.08
2019-02-07T06:09:07.552Z,100095.58
2019-02-07T06:10:28.037Z,100097.25
2019-02-07T06:11:31.087Z,100101.11
2019-02-07T06:12:36.751Z,100096.47
2019-02-07T06:13:42.624Z,100095.81
2019-02-07T06:15:02.312Z,100104.34
2019-02-07T06:16:05.329Z,100102.59
2019-02-07T06:17:24.958Z,100099.95
2019-02-07T06:18:36.682Z,100102.66
2019-02-07T06:19:56.397Z,100103.03
2019-02-07T06:21:11.207Z,100103.41
2019-02-07T06:22:14.329Z,100109.98
2019-02-07T06:23:17.339Z,100108.88
2019-02-07T06:24:36.704Z,100108.91
2019-02-07T06:25:56.153Z,100103.94
2019-02-07T06:27:15.800Z,100107.32
2019-02-07T06:28:24.368Z,100114.22
2019-02-07T06:29:33.412Z,100107.60
2019-02-07T06:30:36.432Z,100111.83
2019-02-07T06:31:54.542Z,100108.19
2019-02-07T06:33:00.492Z,100110.23
2019-02-07T06:34:03.506Z,100104.08
2019-02-07T06:35:10.645Z,100113.16
2019-02-07T06:36:16.617Z,100115.69
2019-02-07T06:37:20.036Z,100117.09
2019-02-07T06:38:23.088Z,100116.14
2019-02-07T06:39:29.033Z,100112.17
2019-02-07T06:40:34.803Z,100117.70
2019-02-07T06:41:49.648Z,100123.25
2019-02-07T06:42:58.271Z,100130.14
2019-02-07T06:44:07.257Z,100131.17
2019-02-07T06:45:12.076Z,100130.52
2019-02-07T06:46:26.675Z,100130.73
2019-02-07T06:47:29.693Z,100132.89
2019-02-07T06:48:32.711Z,100128.41
2019-02-07T06:49:52.653Z,100128.42
2019-02-07T06:50:55.669Z,100129.77
2019-02-07T06:52:10.533Z,100136.31
2019-02-07T06:53:16.453Z,100138.15
2019-02-07T06:54:19.476Z,100132.13
2019-02-07T06:55:28.529Z,100129.46
2019-02-07T06:56:34.315Z,100133.70
2019-02-07T06:57:55.395Z,100124.52
2019-02-07T06:58:58.412Z,100130.02
2019-02-07T07:00:10.169Z,100128.87
2019-02-07T07:01:28.481Z,100131.55
2019-02-07T07:02:34.468Z,100138.39
2019-02-07T07:03:43.214Z,100137.39
2019-02-07T07:04:46.232Z,100139.41
2019-02-07T07:06:01.258Z,100136.05
2019-02-07T07:07:10.413Z,100133.72
2019-02-07T07:08:30.168Z,100125.53
2019-02-07T07:09:41.967Z,100123.53
2019-02-07T07:11:02.984Z,100136.39
2019-02-07T07:12:06.105Z,100139.07
2019-02-07T07:13:11.641Z,100143.94
2019-02-07T07:14:23.449Z,100149.63
2019-02-07T07:15:41.547Z,100149.97
2019-02-07T07:17:01.492Z,100147.62
2019-02-07T07:18:13.696Z,100149.97
2019-02-07T07:19:19.306Z,100158.00
2019-02-07T07:20:22.325Z,100168.03
2019-02-07T07:21:31.149Z,100166.70
2019-02-07T07:22:34.166Z,100168.03
2019-02-07T07:23:53.876Z,100172.91
2019-02-07T07:24:59.508Z,100172.05
2019-02-07T07:26:11.535Z,100177.74
2019-02-07T07:27:23.581Z,100181.76
2019-02-07T07:28:43.220Z,100181.76
2019-02-07T07:29:49.282Z,100183.95
2019-02-07T07:30:55.089Z,100177.74
2019-02-07T07:31:58.100Z,100183.09
2019-02-07T07:33:16.106Z,100184.44
2019-02-07T07:34:35.676Z,100172.39
2019-02-07T07:35:47.496Z,100176.41
2019-02-07T07:36:56.116Z,100172.39
2019-02-07T07:38:08.012Z,100177.08
2019-02-07T07:39:29.335Z,100168.71
2019-02-07T07:40:44.416Z,100165.55
2019-02-07T07:42:05.273Z,100158.34
2019-02-07T07:43:10.845Z,100160.86
2019-02-07T07:44:13.863Z,100154.99
2019-02-07T07:45:20.949Z,100147.14
2019-02-07T07:46:29.508Z,100157.33
2019-02-07T07:47:35.989Z,100158.67
2019-02-07T07:48:37.436Z,100153.66
2019-02-07T07:49:43.223Z,100160.34
2019-02-07T07:50:49.005Z,100161.69
2019-02-07T07:52:00.738Z,100158.52
2019-02-07T07:53:15.559Z,100157.67
2019-02-07T07:54:30.826Z,100161.20
2019-02-07T07:55:42.662Z,100155.33
2019-02-07T07:56:48.604Z,100159.19
2019-02-07T07:58:09.713Z,100167.70
2019-02-07T07:59:18.257Z,100164.70
2019-02-07T08:00:27.850Z,100172.73
2019-02-07T08:01:39.542Z,100172.91
2019-02-07T08:02:45.826Z,100173.39
2019-02-07T08:03:51.596Z,100177.41
2019-02-07T08:04:57.444Z,100177.07
2019-02-07T08:06:09.186Z,100177.56
2019-02-07T08:07:20.869Z,100187.30
2019-02-07T08:08:39.000Z,100182.91
2019-02-07T08:09:42.030Z,100179.41
2019-02-07T08:11:00.242Z,100184.44
2019-02-07T08:12:05.860Z,100178.56
2019-02-07T08:13:14.830Z,100178.22
2019-02-07T08:14:20.425Z,100175.06
2019-02-07T08:15:41.348Z,100177.73
2019-02-07T08:16:53.779Z,100174.72
2019-02-07T08:18:09.088Z,100181.42
2019-02-07T08:19:17.800Z,100173.05
2019-02-07T08:20:20.812Z,100180.23
2019-02-07T08:21:29.479Z,100173.72
2019-02-07T08:22:35.400Z,100171.04
2019-02-07T08:23:47.094Z,100175.05
2019-02-07T08:25:06.726Z,100175.54
2019-02-07T08:26:21.535Z,100179.55
2019-02-07T08:27:43.381Z,100179.55
2019-02-07T08:28:58.779Z,100181.08
2019-02-07T08:30:10.937Z,100178.06
2019-02-07T08:31:13.951Z,100188.77
2019-02-07T08:32:33.383Z,100179.06
2019-02-07T08:33:39.117Z,100184.41
2019-02-07T08:34:41.324Z,100181.41
2019-02-07T08:36:00.937Z,100181.73
2019-02-07T08:37:21.845Z,100187.58
2019-02-07T08:38:27.588Z,100187.09
2019-02-07T08:39:36.685Z,100189.77
2019-02-07T08:40:48.740Z,100193.45
2019-02-07T08:41:51.752Z,100198.80
2019-02-07T08:43:11.067Z,100194.45
2019-02-07T08:44:19.621Z,100207.32
2019-02-07T08:45:22.640Z,100210.84
2019-02-07T08:46:25.722Z,100201.48
2019-02-07T08:47:45.468Z,100203.64
2019-02-07T08:49:01.133Z,100207.17
2019-02-07T08:50:07.368Z,100199.14
2019-02-07T08:51:13.415Z,100199.96
2019-02-07T08:52:34.328Z,100198.14
2019-02-07T08:53:39.860Z,100199.14
2019-02-07T08:54:48.404Z,100205.31
2019-02-07T08:56:07.997Z,100196.80
2019-02-07T08:57:20.156Z,100196.46
2019-02-07T08:58:41.748Z,100200.81
2019-02-07T08:59:44.769Z,100198.14
2019-02-07T09:00:47.777Z,100208.84
2019-02-07T09:02:06.304Z,100202.48
2019-02-07T09:03:21.258Z,100209.18
2019-02-07T09:04:27.070Z,100203.83
2019-02-07T09:05:46.961Z,100211.00
2019-02-07T09:07:07.910Z,100199.14
2019-02-07T09:08:27.321Z,100201.81
2019-02-07T09:09:30.339Z,100199.96
2019-02-07T09:10:42.021Z,100197.47
2019-02-07T09:11:48.021Z,100202.30
2019-02-07T09:12:56.615Z,100201.81
2019-02-07T09:14:02.196Z,100203.16
2019-02-07T09:15:14.456Z,100200.81
2019-02-07T09:16:23.081Z,100202.64
2019-02-07T09:17:26.104Z,100202.16
2019-02-07T09:18:41.166Z,100205.50
2019-02-07T09:20:00.666Z,100207.84
2019-02-07T09:21:12.832Z,100210.86
2019-02-07T09:22:18.379Z,100208.52
2019-02-07T09:23:21.401Z,100209.67
2019-02-07T09:24:29.949Z,100206.17
2019-02-07T09:25:35.953Z,100204.84
2019-02-07T09:26:38.977Z,100206.52
2019-02-07T09:27:53.580Z,100204.17
2019-02-07T09:28:59.281Z,100210.69
2019-02-07T09:30:08.126Z,100212.02
2019-02-07T09:31:27.632Z,100214.06
2019-02-07T09:32:33.665Z,100212.73
2019-02-07T09:33:41.508Z,100221.58
2019-02-07T09:34:52.528Z,100220.58
2019-02-07T09:36:05.422Z,100220.76
2019-02-07T09:37:12.097Z,100221.09
2019-02-07T09:38:20.816Z,100217.23
2019-02-07T09:39:38.642Z,100214.06
2019-02-07T09:40:44.486Z,100215.03
2019-02-07T09:41:50.027Z,100216.89
2019-02-07T09:43:09.460Z,100218.56
2019-02-07T09:44:12.977Z,100222.58
2019-02-07T09:45:17.793Z,100231.28
2019-02-07T09:46:37.561Z,100224.59
2019-02-07T09:47:57.698Z,100229.94
2019-02-07T09:49:00.713Z,100230.94
2019-02-07T09:50:07.776Z,100229.27
2019-02-07T09:51:28.824Z,100231.42
2019-02-07T09:52:34.866Z,100229.27
2019-02-07T09:53:37.896Z,100233.43
2019-02-07T09:54:46.933Z,100239.97
2019-02-07T09:56:08.365Z,100238.78
2019-02-07T09:57:11.375Z,100237.45
2019-02-07T09:58:16.941Z,100237.96
2019-02-07T09:59:25.766Z,100242.65
2019-02-07T10:00:45.262Z,100245.81
2019-02-07T10:01:50.808Z,100248.34
2019-02-07T10:02:53.828Z,100253.84
2019-02-07T10:04:02.662Z,100242.31
2019-02-07T10:05:08.568Z,100245.81
2019-02-07T10:06:23.471Z,100245.33
2019-02-07T10:07:35.468Z,100240.45
2019-02-07T10:08:44.255Z,100244.81
2019-02-07T10:09:53.117Z,100243.81
2019-02-07T10:10:56.180Z,100247.48
2019-02-07T10:11:59.398Z,100254.52
2019-02-07T10:13:08.221Z,100256.71
2019-02-07T10:14:20.090Z,100254.03
2019-02-07T10:15:38.123Z,100256.53
2019-02-07T10:16:57.501Z,100253.38
2019-02-07T10:18:17.369Z,100250.69
2019-02-07T10:19:32.190Z,100252.03
2019-02-07T10:20:37.286Z,100261.41
2019-02-07T10:21:42.924Z,100263.08
2019-02-07T10:22:48.832Z,100261.25
2019-02-07T10:24:03.701Z,100267.43
2019-02-07T10:25:19.221Z,100267.77
2019-02-07T10:26:30.995Z,100269.44
2019-02-07T10:27:39.900Z,100268.96
2019-02-07T10:28:42.921Z,100276.81
2019-02-07T10:29:55.005Z,100279.48
2019-02-07T10:31:14.678Z,100283.84
2019-02-07T10:32:23.244Z,100284.18
2019-02-07T10:33:44.376Z,100285.03
2019-02-07T10:34:50.608Z,100284.86
2019-02-07T10:35:59.860Z,100275.48
2019-02-07T10:37:06.329Z,100268.64
2019-02-07T10:38:18.425Z,100273.81
2019-02-07T10:39:38.302Z,100266.64
2019-02-07T10:40:50.087Z,100268.80
2019-02-07T10:41:58.660Z,100269.14
2019-02-07T10:43:16.753Z,100262.44
2019-02-07T10:44:22.526Z,100256.08
2019-02-07T10:45:40.635Z,100266.12
2019-02-07T10:46:46.165Z,100266.64
2019-02-07T10:48:05.736Z,100272.00
2019-02-07T10:49:10.857Z,100273.83
2019-02-07T10:50:28.769Z,100268.13
2019-02-07T10:51:34.343Z,100270.81
2019-02-07T10:52:40.011Z,100268.31
2019-02-07T10:53:44.886Z,100271.81
2019-02-07T10:54:50.437Z,100272.67
2019-02-07T10:56:10.017Z,100276.50
2019-02-07T10:57:29.547Z,100269.47
2019-02-07T10:58:32.570Z,100268.98
2019-02-07T10:59:44.696Z,100266.80
2019-02-07T11:00:50.462Z,100260.44
2019-02-07T11:02:05.719Z,100260.09
2019-02-07T11:03:25.703Z,100265.79
2019-02-07T11:04:46.774Z,100257.77
2019-02-07T11:05:49.989Z,100257.42
2019-02-07T11:07:08.634Z,100256.94
2019-02-07T11:08:11.658Z,100261.30
2019-02-07T11:09:32.078Z,100259.28
2019-02-07T11:10:51.650Z,100256.08
2019-02-07T11:12:07.052Z,100260.09
2019-02-07T11:13:26.628Z,100258.77
2019-02-07T11:14:38.236Z,100262.44
2019-02-07T11:15:57.885Z,100262.44
2019-02-07T11:17:17.379Z,100262.95
2019-02-07T11:18:35.935Z,100260.77
2019-02-07T11:19:50.571Z,100259.42
2019-02-07T11:21:11.689Z,100256.41
2019-02-07T11:22:31.060Z,100258.27
2019-02-07T11:23:39.668Z,100261.77
2019-02-07T11:24:45.455Z,100257.41
2019-02-07T11:26:04.755Z,100262.77
2019-02-07T11:27:24.188Z,100270.14
2019-02-07T11:28:42.092Z,100270.66
2019-02-07T11:29:45.093Z,100270.66
2019-02-07T11:31:06.577Z,100268.31
2019-02-07T11:32:18.651Z,100267.80
2019-02-07T11:33:21.668Z,100268.65
2019-02-07T11:34:25.103Z,100268.13
2019-02-07T11:35:30.763Z,100272.48
2019-02-07T11:36:33.777Z,100271.15
2019-02-07T11:37:53.254Z,100273.16
2019-02-07T11:39:14.631Z,100270.48
2019-02-07T11:40:17.648Z,100277.52
2019-02-07T11:41:20.965Z,100278.37
2019-02-07T11:42:24.278Z,100279.19
2019-02-07T11:43:30.058Z,100276.03
2019-02-07T11:44:36.240Z,100279.90
2019-02-07T11:45:39.253Z,100285.59
2019-02-07T11:46:48.967Z,100283.73
2019-02-07T11:47:54.689Z,100290.62
2019-02-07T11:49:06.803Z,100286.94
2019-02-07T11:50:14.343Z,100289.44
2019-02-07T11:51:17.365Z,100286.27
2019-02-07T11:52:31.225Z,100286.95
2019-02-07T11:53:46.020Z,100281.92
2019-02-07T11:54:49.036Z,100276.91
2019-02-07T11:55:52.064Z,100280.41
2019-02-07T11:57:00.933Z,100276.72
2019-02-07T11:58:06.708Z,100278.06
2019-02-07T11:59:09.721Z,100277.58
2019-02-07T12:00:19.274Z,100273.89
2019-02-07T12:01:24.831Z,100278.25
2019-02-07T12:02:44.437Z,100275.57
2019-02-07T12:03:56.183Z,100272.89
2019-02-07T12:05:02.000Z,100274.39
2019-02-07T12:06:05.518Z,100271.89
2019-02-07T12:07:08.554Z,100278.59
2019-02-07T12:08:15.595Z,100271.89
2019-02-07T12:09:18.613Z,100273.05
2019-02-07T12:10:36.966Z,100273.05
2019-02-07T12:11:39.983Z,100276.58
2019-02-07T12:12:43.020Z,100276.06
2019-02-07T12:13:57.869Z,100278.25
2019-02-07T12:15:03.649Z,100278.92
2019-02-07T12:16:06.764Z,100278.92
2019-02-07T12:17:16.012Z,100278.44
2019-02-07T12:18:20.163Z,100274.91
2019-02-07T12:19:35.305Z,100281.45
2019-02-07T12:20:54.721Z,100276.92
2019-02-07T12:21:57.738Z,100274.42
2019-02-07T12:23:03.568Z,100273.42
2019-02-07T12:24:09.145Z,100271.74
2019-02-07T12:25:28.733Z,100272.56
2019-02-07T12:26:35.048Z,100268.55
2019-02-07T12:27:38.067Z,100271.23
2019-02-07T12:28:43.844Z,100272.08
2019-02-07T12:29:46.878Z,100267.54
2019-02-07T12:30:58.609Z,100263.52
2019-02-07T12:32:01.625Z,100264.86
2019-02-07T12:33:04.640Z,100263.52
2019-02-07T12:34:07.753Z,100264.86
2019-02-07T12:35:17.254Z,100267.87
2019-02-07T12:36:20.569Z,100263.38
2019-02-07T12:37:23.595Z,100269.55
2019-02-07T12:38:26.614Z,100277.92
2019-02-07T12:39:41.757Z,100273.09
2019-02-07T12:40:47.304Z,100278.78
2019-02-07T12:41:56.368Z,100273.91
2019-02-07T12:43:08.392Z,100279.27
2019-02-07T12:44:14.209Z,100283.63
2019-02-07T12:45:34.002Z,100286.30
2019-02-07T12:46:53.484Z,100282.80
2019-02-07T12:48:12.843Z,100281.95
2019-02-07T12:49:33.712Z,100287.83
2019-02-07T12:50:53.058Z,100286.14
2019-02-07T12:51:56.085Z,100285.81
2019-02-07T12:52:59.104Z,100284.95
2019-02-07T12:54:07.923Z,100289.98
2019-02-07T12:55:14.192Z,100281.61